Time;durP1;ratioP1;P1;durP2;ratioP2;P2;SDS_P1;SDS_P2;PMS_P1;PMS_P2;Temp;Humidity;BMP_temperature;BMP_pressure;BME280_temperature;BME280_humidity;BME280_pressure;Samples;Min_cycle;Max_cycle;Signal;HPM_P1;HPM_P2
2021/07/05 00:02:16;;;;;;;;;;;;;;;26.08;61.56;99973.98;1803432;79;20131;-56
2021/07/05 00:04:42;;;;;;;;;;;;;;;26.11;61.58;99976.02;1792378;79;20407;-56
2021/07/05 00:07:08;;;;;;;;;;;;;;;26.15;61.60;99976.06;1789018;78;21100;-56
2021/07/05 00:09:34;;;;;;;;;;;;;;;26.17;61.62;99967.55;1782451;80;20400;-56
2021/07/05 00:12:00;;;;;;;;;;;;;;;26.19;61.65;99972.73;1786074;80;20205;-56
2021/07/05 00:14:26;;;;;;;;;;;;;;;26.20;61.63;99971.01;1795117;80;22137;-56
2021/07/05 00:16:52;;;;;;;;;;;;;;;26.20;61.62;99968.22;1796354;79;20555;-56
2021/07/05 00:19:18;;;;;;;;;;;;;;;26.21;61.60;99971.23;1803589;79;21299;-56
2021/07/05 00:21:43;;;;;;;;;;;;;;;26.19;61.58;99963.78;1808229;78;20789;-56
2021/07/05 00:24:09;;;;;;;;;;;;;;;26.19;61.58;99965.77;1806928;79;20232;-56
2021/07/05 00:26:35;;;;;;;;;;;;;;;26.17;61.54;99964.77;1813540;78;20162;-55
2021/07/05 00:29:01;;;;;;;;;;;;;;;26.15;61.54;99962.93;1819010;77;20259;-56
2021/07/05 00:31:27;;;;;;;;;;;;;;;26.13;61.55;99961.70;1820208;78;21132;-56
2021/07/05 00:33:53;;;;;;;;;;;;;;;26.12;61.56;99960.09;1792137;79;20755;-56
2021/07/05 00:36:19;;;;;;;;;;;;;;;26.08;61.58;99956.45;1806230;79;20196;-56
2021/07/05 00:38:45;;;;;;;;;;;;;;;26.05;61.60;99953.83;1803155;79;22025;-56
2021/07/05 00:41:11;;;;;;;;;;;;;;;26.03;61.62;99954.78;1804636;79;20181;-56
2021/07/05 00:43:37;;;;;;;;;;;;;;;26.00;61.66;99958.33;1813454;78;21120;-56
2021/07/05 00:46:03;;;;;;;;;;;;;;;25.98;61.68;99955.68;1809645;79;20207;-56
2021/07/05 00:48:35;;;;;;;;;;;;;;;25.94;61.72;99957.02;1815401;78;20282;-56
2021/07/05 00:51:01;;;;;;;;;;;;;;;25.91;61.75;99958.59;1796419;79;20264;-56
2021/07/05 00:53:27;;;;;;;;;;;;;;;25.89;61.80;99960.12;1786593;79;20718;-56
2021/07/05 00:55:53;;;;;;;;;;;;;;;25.86;61.83;99963.66;1783451;79;21838;-56
2021/07/05 00:58:19;;;;;;;;;;;;;;;25.83;61.85;99957.45;1807646;78;20173;-55
2021/07/05 01:00:45;;;;;;;;;;;;;;;25.81;61.93;99957.81;1808516;79;20157;-56
2021/07/05 01:03:11;;;;;;;;;;;;;;;25.79;61.96;99959.38;1813895;79;20851;-56
2021/07/05 01:05:37;;;;;;;;;;;;;;;25.77;61.98;99960.33;1816501;77;20135;-55
2021/07/05 01:08:04;;;;;;;;;;;;;;;25.75;62.04;99958.52;1849688;77;21167;-56
2021/07/05 01:10:29;;;;;;;;;;;;;;;25.73;62.06;99967.23;1841611;77;20133;-56
2021/07/05 01:13:10;;;;;;;;;;;;;;;25.75;62.11;99964.09;1861277;77;20691;-56
2021/07/05 01:15:36;;;;;;;;;;;;;;;25.75;62.17;99971.05;1864858;77;20079;-56
2021/07/05 01:18:04;;;;;;;;;;;;;;;25.76;62.21;99967.88;1837284;77;20219;-56
2021/07/05 01:20:31;;;;;;;;;;;;;;;25.79;62.29;99970.52;1846457;77;21162;-56
2021/07/05 01:22:57;;;;;;;;;;;;;;;25.82;62.34;99968.38;1847824;77;20179;-56
2021/07/05 01:25:25;;;;;;;;;;;;;;;25.86;62.37;99965.06;1808343;77;20170;-56
2021/07/05 01:27:51;;;;;;;;;;;;;;;25.89;62.41;99969.29;1827413;77;20773;-56
2021/07/05 01:30:18;;;;;;;;;;;;;;;25.93;62.39;99971.35;1844320;77;20128;-56
2021/07/05 01:32:45;;;;;;;;;;;;;;;25.96;62.41;99965.83;1836950;77;21135;-57
2021/07/05 01:35:11;;;;;;;;;;;;;;;26.00;62.41;99965.88;1850722;77;20115;-55
2021/07/05 01:37:37;;;;;;;;;;;;;;;26.01;62.40;99969.70;1846365;76;20191;-56
2021/07/05 01:40:07;;;;;;;;;;;;;;;26.03;62.42;99970.11;1843441;77;20141;-56
2021/07/05 01:42:32;;;;;;;;;;;;;;;26.05;62.37;99975.33;1855743;76;20639;-55
2021/07/05 01:44:59;;;;;;;;;;;;;;;26.07;62.33;99977.94;1858625;76;20700;-56
2021/07/05 01:47:25;;;;;;;;;;;;;;;26.06;62.29;99970.75;1843865;77;20149;-56
2021/07/05 01:49:50;;;;;;;;;;;;;;;26.05;62.25;99976.13;1849209;77;20213;-56
2021/07/05 01:52:16;;;;;;;;;;;;;;;26.04;62.22;99970.34;1849995;77;20169;-56
2021/07/05 01:54:42;;;;;;;;;;;;;;;26.03;62.18;99966.52;1841819;77;20741;-56
2021/07/05 01:57:27;;;;;;;;;;;;;;;26.01;62.17;99968.30;1844337;77;20268;-56
2021/07/05 01:59:54;;;;;;;;;;;;;;;25.99;62.15;99970.65;1838417;77;20135;-55
2021/07/05 02:02:21;;;;;;;;;;;;;;;25.96;62.15;99970.02;1844949;77;20124;-55
2021/07/05 02:04:47;;;;;;;;;;;;;;;25.93;62.14;99967.36;1844715;77;20128;-55
2021/07/05 02:07:13;;;;;;;;;;;;;;;25.91;62.16;99975.89;1833404;77;20402;-56
2021/07/05 02:09:39;;;;;;;;;;;;;;;25.87;62.16;99973.05;1836476;77;21093;-56
2021/07/05 02:12:06;;;;;;;;;;;;;;;25.84;62.21;99975.17;1843049;77;20162;-56
2021/07/05 02:14:31;;;;;;;;;;;;;;;25.81;62.22;99973.14;1834028;77;20426;-56
2021/07/05 02:16:57;;;;;;;;;;;;;;;25.79;62.26;99977.49;1837026;77;20672;-56
2021/07/05 02:19:23;;;;;;;;;;;;;;;25.76;62.27;99982.39;1833703;77;20164;-56
2021/07/05 02:21:49;;;;;;;;;;;;;;;25.73;62.30;99978.97;1842016;77;21095;-55
2021/07/05 02:24:15;;;;;;;;;;;;;;;25.71;62.32;99972.98;1797304;77;20198;-56
2021/07/05 02:26:42;;;;;;;;;;;;;;;25.69;62.37;99973.92;1839100;77;20093;-56
2021/07/05 02:29:08;;;;;;;;;;;;;;;25.66;62.40;99974.67;1825620;77;20125;-56
2021/07/05 02:31:34;;;;;;;;;;;;;;;25.64;62.43;99978.41;1841968;77;20198;-55
2021/07/05 02:34:00;;;;;;;;;;;;;;;25.63;62.47;99977.60;1828561;77;22123;-56
2021/07/05 02:36:26;;;;;;;;;;;;;;;25.60;62.50;99974.17;1821839;77;20130;-56
2021/07/05 02:38:52;;;;;;;;;;;;;;;25.59;62.54;99976.73;1833147;77;20266;-56
2021/07/05 02:41:18;;;;;;;;;;;;;;;25.59;62.54;99980.13;1829158;77;20146;-56
2021/07/05 02:43:44;;;;;;;;;;;;;;;25.60;62.56;99981.72;1822777;77;20725;-55
2021/07/05 02:46:10;;;;;;;;;;;;;;;25.62;62.62;99990.52;1838926;77;21862;-56
2021/07/05 02:48:36;;;;;;;;;;;;;;;25.63;62.68;99983.17;1819416;77;20080;-55
2021/07/05 02:51:04;;;;;;;;;;;;;;;25.65;62.72;99980.83;1824370;77;20216;-56
2021/07/05 02:53:30;;;;;;;;;;;;;;;25.69;62.76;99983.67;1825770;78;20400;-56
2021/07/05 02:55:56;;;;;;;;;;;;;;;25.73;62.80;99992.89;1836130;77;20268;-56
2021/07/05 02:58:22;;;;;;;;;;;;;;;25.76;62.79;99989.36;1834192;77;21039;-56
2021/07/05 03:00:54;;;;;;;;;;;;;;;25.79;62.81;99983.06;1837510;77;20185;-56
2021/07/05 03:03:20;;;;;;;;;;;;;;;25.84;62.80;99986.32;1826067;77;20094;-56
2021/07/05 03:05:46;;;;;;;;;;;;;;;25.87;62.79;99988.38;1813192;77;20139;-56
2021/07/05 03:08:12;;;;;;;;;;;;;;;25.88;62.78;99991.39;1799591;79;20149;-55
2021/07/05 03:10:38;;;;;;;;;;;;;;;25.91;62.74;99985.66;1797010;79;21008;-56
2021/07/05 03:13:09;;;;;;;;;;;;;;;25.93;62.70;99990.25;1795237;78;20126;-56
2021/07/05 03:15:35;;;;;;;;;;;;;;;25.93;62.64;99990.25;1801691;79;20134;-56
2021/07/05 03:18:01;;;;;;;;;;;;;;;25.92;62.60;99990.05;1809194;78;20240;-56
2021/07/05 03:20:29;;;;;;;;;;;;;;;25.93;62.55;99990.86;1803257;78;20457;-56
2021/07/05 03:22:57;;;;;;;;;;;;;;;25.90;62.51;99982.64;1805127;78;21071;-56
2021/07/05 03:25:23;;;;;;;;;;;;;;;25.89;62.47;99987.41;1805146;78;20376;-56
2021/07/05 03:27:50;;;;;;;;;;;;;;;25.87;62.48;99981.42;1804555;79;20159;-56
2021/07/05 03:30:17;;;;;;;;;;;;;;;25.85;62.46;99981.55;1787174;79;20174;-56
2021/07/05 03:32:43;;;;;;;;;;;;;;;25.82;62.43;99976.73;1801551;79;20432;-55
2021/07/05 03:35:10;;;;;;;;;;;;;;;25.79;62.42;99971.92;1798514;79;21878;-55
2021/07/05 03:37:36;;;;;;;;;;;;;;;25.76;62.43;99977.63;1794606;79;20448;-56
2021/07/05 03:40:03;;;;;;;;;;;;;;;25.73;62.46;99974.20;1803267;78;20146;-55
2021/07/05 03:42:29;;;;;;;;;;;;;;;25.71;62.46;99968.22;1798006;78;20381;-56
2021/07/05 03:44:55;;;;;;;;;;;;;;;25.69;62.47;99968.35;1808349;78;20252;-56
2021/07/05 03:47:38;;;;;;;;;;;;;;;25.66;62.50;99963.53;1804908;79;23310;-56
2021/07/05 03:50:05;;;;;;;;;;;;;;;25.64;62.53;99968.66;1805649;78;20371;-56
2021/07/05 03:52:31;;;;;;;;;;;;;;;25.62;62.54;99962.67;1803011;77;20150;-55
2021/07/05 03:54:56;;;;;;;;;;;;;;;25.59;62.57;99962.03;1808099;78;20134;-56
2021/07/05 03:57:22;;;;;;;;;;;;;;;25.57;62.58;99967.96;1803517;79;20149;-56
2021/07/05 03:59:52;;;;;;;;;;;;;;;25.54;62.61;99967.32;1805723;79;21139;-56
2021/07/05 04:02:18;;;;;;;;;;;;;;;25.54;62.64;99967.91;1802215;79;20521;-56
2021/07/05 04:04:44;;;;;;;;;;;;;;;25.51;62.66;99956.06;1802440;77;20204;-56
2021/07/05 04:07:10;;;;;;;;;;;;;;;25.49;62.68;99950.88;1800406;79;20140;-56
2021/07/05 04:09:36;;;;;;;;;;;;;;;25.47;62.69;99947.06;1801406;78;20391;-56
2021/07/05 04:12:12;;;;;;;;;;;;;;;25.48;62.70;99954.83;1795634;79;20699;-56
2021/07/05 04:14:39;;;;;;;;;;;;;;;25.49;62.73;99946.70;1799676;79;20117;-56
2021/07/05 04:17:05;;;;;;;;;;;;;;;25.51;62.76;99951.30;1805322;78;20197;-56
2021/07/05 04:19:31;;;;;;;;;;;;;;;25.53;62.80;99952.33;1802279;77;20224;-56
2021/07/05 04:21:57;;;;;;;;;;;;;;;25.55;62.85;99950.80;1800538;78;20169;-56
2021/07/05 04:24:23;;;;;;;;;;;;;;;25.57;62.86;99951.25;1804014;79;21262;-56
2021/07/05 04:26:49;;;;;;;;;;;;;;;25.62;62.92;99959.88;1802398;79;20479;-56
2021/07/05 04:29:16;;;;;;;;;;;;;;;25.65;62.92;99951.58;1803825;78;20181;-56
2021/07/05 04:31:42;;;;;;;;;;;;;;;25.69;62.92;99958.02;1803268;79;20098;-56
2021/07/05 04:34:08;;;;;;;;;;;;;;;25.73;62.93;99950.52;1802520;78;20146;-55
2021/07/05 04:36:35;;;;;;;;;;;;;;;25.76;62.87;99948.37;1808070;78;23226;-56
2021/07/05 04:39:02;;;;;;;;;;;;;;;25.78;62.86;99948.82;1801783;79;20447;-56
2021/07/05 04:41:28;;;;;;;;;;;;;;;25.80;62.83;99945.67;1803062;78;20163;-56
2021/07/05 04:43:53;;;;;;;;;;;;;;;25.81;62.77;99944.47;1805118;78;20212;-55
2021/07/05 04:46:21;;;;;;;;;;;;;;;25.83;62.72;99943.52;1801630;79;21584;-56
2021/07/05 04:48:47;;;;;;;;;;;;;;;25.83;62.68;99939.34;1802878;79;23215;-56
2021/07/05 04:51:15;;;;;;;;;;;;;;;25.82;62.63;99948.88;1800545;78;20236;-56
2021/07/05 04:53:42;;;;;;;;;;;;;;;25.81;62.59;99947.25;1801505;79;20166;-56
2021/07/05 04:56:08;;;;;;;;;;;;;;;25.80;62.55;99945.67;1801065;78;20450;-55
2021/07/05 04:58:36;;;;;;;;;;;;;;;25.77;62.54;99948.59;1804167;79;20403;-56
2021/07/05 05:01:02;;;;;;;;;;;;;;;25.76;62.50;99947.56;1800959;79;21106;-57
2021/07/05 05:03:28;;;;;;;;;;;;;;;25.73;62.49;99952.50;1801265;78;20247;-56
2021/07/05 05:05:54;;;;;;;;;;;;;;;25.71;62.48;99952.09;1800842;78;20220;-57
2021/07/05 05:08:19;;;;;;;;;;;;;;;25.68;62.50;99959.19;1799904;79;20200;-56
2021/07/05 05:10:45;;;;;;;;;;;;;;;25.66;62.50;99964.92;1790608;79;20399;-57
2021/07/05 05:13:11;;;;;;;;;;;;;;;25.63;62.51;99959.48;1799609;79;21904;-57
2021/07/05 05:15:37;;;;;;;;;;;;;;;25.61;62.55;99966.04;1810403;79;20191;-57
2021/07/05 05:18:03;;;;;;;;;;;;;;;25.58;62.55;99964.00;1806175;78;20252;-56
2021/07/05 05:20:29;;;;;;;;;;;;;;;25.57;62.56;99962.97;1794596;79;20383;-57
2021/07/05 05:22:55;;;;;;;;;;;;;;;25.54;62.58;99960.36;1800322;79;20789;-57
2021/07/05 05:25:21;;;;;;;;;;;;;;;25.54;62.61;99967.91;1806730;79;21952;-57
2021/07/05 05:27:47;;;;;;;;;;;;;;;25.51;62.64;99964.41;1806865;78;20167;-56
2021/07/05 05:30:15;;;;;;;;;;;;;;;25.48;62.63;99962.60;1799119;79;20232;-57
2021/07/05 05:32:40;;;;;;;;;;;;;;;25.47;62.68;99965.75;1803221;78;20396;-57
2021/07/05 05:35:07;;;;;;;;;;;;;;;25.45;62.69;99955.58;1810803;78;20762;-57
2021/07/05 05:37:33;;;;;;;;;;;;;;;25.42;62.71;99952.94;1774510;78;21096;-56
2021/07/05 05:39:59;;;;;;;;;;;;;;;25.42;62.73;99955.72;1787907;79;20400;-56
2021/07/05 05:42:25;;;;;;;;;;;;;;;25.42;62.73;99948.75;1801212;79;20400;-57
2021/07/05 05:44:51;;;;;;;;;;;;;;;25.44;62.76;99951.98;1797674;79;20719;-56
2021/07/05 05:47:17;;;;;;;;;;;;;;;25.44;62.84;99953.38;1800445;79;20252;-57
2021/07/05 05:49:43;;;;;;;;;;;;;;;25.46;62.88;99954.41;1770233;79;21098;-56
2021/07/05 05:52:09;;;;;;;;;;;;;;;25.50;62.94;99955.87;1793328;79;20397;-56
2021/07/05 05:54:35;;;;;;;;;;;;;;;25.53;62.93;99953.17;1800176;79;20188;-57
2021/07/05 05:57:01;;;;;;;;;;;;;;;25.55;62.96;99953.58;1797852;79;20137;-56
2021/07/05 05:59:27;;;;;;;;;;;;;;;25.60;62.92;99957.45;1787115;79;20400;-56
2021/07/05 06:01:53;;;;;;;;;;;;;;;25.65;62.89;99954.95;1798719;79;20595;-57
2021/07/05 06:04:20;;;;;;;;;;;;;;;25.68;62.88;99952.80;1794441;79;21535;-56
2021/07/05 06:06:46;;;;;;;;;;;;;;;25.72;62.84;99952.27;1826310;77;20164;-57
2021/07/05 06:09:12;;;;;;;;;;;;;;;25.74;62.82;99958.30;1819047;78;20418;-58
2021/07/05 06:11:39;;;;;;;;;;;;;;;25.77;62.79;99956.95;1813457;77;20904;-60
2021/07/05 06:14:05;;;;;;;;;;;;;;;25.79;62.75;99953.80;1812014;78;21170;-59
2021/07/05 06:16:32;;;;;;;;;;;;;;;25.80;62.70;99957.59;1822496;77;20159;-59
2021/07/05 06:18:58;;;;;;;;;;;;;;;25.80;62.63;99958.98;1821300;77;20216;-59
2021/07/05 06:21:26;;;;;;;;;;;;;;;25.80;62.61;99955.42;1819082;78;20138;-58
2021/07/05 06:23:53;;;;;;;;;;;;;;;25.79;62.60;99951.83;1807458;77;20197;-58
2021/07/05 06:26:18;;;;;;;;;;;;;;;25.78;62.56;99957.17;1825160;77;21126;-59
2021/07/05 06:28:44;;;;;;;;;;;;;;;25.77;62.53;99954.17;1818145;77;20285;-59
2021/07/05 06:31:10;;;;;;;;;;;;;;;25.76;62.53;99953.95;1816113;77;20757;-59
2021/07/05 06:33:36;;;;;;;;;;;;;;;25.73;62.55;99957.48;1818620;77;20799;-59
2021/07/05 06:36:02;;;;;;;;;;;;;;;25.71;62.55;99957.07;1820864;77;20169;-56
2021/07/05 06:38:28;;;;;;;;;;;;;;;25.68;62.57;99948.04;1820465;77;20999;-59
2021/07/05 06:40:56;;;;;;;;;;;;;;;25.65;62.58;99948.80;1813764;77;20419;-59
2021/07/05 06:43:22;;;;;;;;;;;;;;;25.62;62.59;99951.53;1821332;78;20190;-59
2021/07/05 06:45:48;;;;;;;;;;;;;;;25.58;62.62;99951.47;1814458;78;20163;-59
2021/07/05 06:48:13;;;;;;;;;;;;;;;25.55;62.68;99954.17;1819795;78;20243;-59
2021/07/05 06:50:39;;;;;;;;;;;;;;;25.51;62.71;99956.87;1820890;78;21123;-60
2021/07/05 06:53:05;;;;;;;;;;;;;;;25.48;62.74;99952.86;1819832;78;20772;-59
2021/07/05 06:55:32;;;;;;;;;;;;;;;25.46;62.76;99949.63;1815274;78;20244;-59
2021/07/05 06:57:58;;;;;;;;;;;;;;;25.44;62.79;99956.17;1810064;78;20147;-59
2021/07/05 07:00:25;;;;;;;;;;;;;;;25.41;62.81;99955.52;1813074;78;20275;-59
2021/07/05 07:02:51;;;;;;;;;;;;;;;25.40;62.83;99954.49;1819383;78;21000;-59
2021/07/05 07:05:18;;;;;;;;;;;;;;;25.38;62.81;99958.22;1817945;78;20211;-59
2021/07/05 07:07:46;;;;;;;;;;;;;;;25.35;62.84;99950.61;1829349;77;20434;-60
2021/07/05 07:10:13;;;;;;;;;;;;;;;25.35;62.85;99947.83;1823723;77;20136;-58
2021/07/05 07:12:40;;;;;;;;;;;;;;;25.32;62.85;99952.76;1826878;77;20391;-59
2021/07/05 07:15:07;;;;;;;;;;;;;;;25.32;62.80;99945.80;1822830;77;21862;-59
2021/07/05 07:17:40;;;;;;;;;;;;;;;25.32;62.76;99943.82;1821607;77;20373;-59
2021/07/05 07:20:08;;;;;;;;;;;;;;;25.34;62.78;99944.23;1819751;77;20251;-59
2021/07/05 07:22:34;;;;;;;;;;;;;;;25.34;62.81;99946.22;1835666;77;20610;-59
2021/07/05 07:25:01;;;;;;;;;;;;;;;25.36;62.79;99940.51;1826159;77;20128;-59
2021/07/05 07:27:27;;;;;;;;;;;;;;;25.38;62.78;99945.69;1831407;77;21286;-59
2021/07/05 07:29:53;;;;;;;;;;;;;;;25.40;62.76;99940.56;1827559;77;20439;-60
2021/07/05 07:32:19;;;;;;;;;;;;;;;25.42;62.72;99949.34;1839774;77;20152;-59
2021/07/05 07:34:45;;;;;;;;;;;;;;;25.45;62.69;99946.64;1826175;77;20227;-59
2021/07/05 07:37:11;;;;;;;;;;;;;;;25.48;62.66;99945.89;1821845;77;20201;-59
2021/07/05 07:39:40;;;;;;;;;;;;;;;25.51;62.60;99947.70;1824738;77;21105;-59
2021/07/05 07:42:05;;;;;;;;;;;;;;;25.53;62.55;99944.81;1827568;77;20364;-59
2021/07/05 07:44:31;;;;;;;;;;;;;;;25.55;62.47;99949.99;1829098;77;20205;-59
2021/07/05 07:46:57;;;;;;;;;;;;;;;25.56;62.39;99948.23;1832379;77;20539;-59
2021/07/05 07:49:23;;;;;;;;;;;;;;;25.57;62.28;99942.89;1823772;77;20144;-59
2021/07/05 07:51:49;;;;;;;;;;;;;;;25.56;62.19;99944.64;1835404;77;20780;-58
2021/07/05 07:54:15;;;;;;;;;;;;;;;25.55;62.10;99946.63;1828460;77;20166;-58
2021/07/05 07:56:41;;;;;;;;;;;;;;;25.53;62.03;99940.63;1827888;77;20269;-58
2021/07/05 07:59:07;;;;;;;;;;;;;;;25.54;61.96;99933.09;1823907;77;20170;-59
2021/07/05 08:01:33;;;;;;;;;;;;;;;25.50;61.91;99931.61;1828430;77;20801;-58
2021/07/05 08:03:59;;;;;;;;;;;;;;;25.47;61.85;99933.14;1828081;77;21920;-60
2021/07/05 08:06:25;;;;;;;;;;;;;;;25.45;61.82;99927.73;1830050;77;20189;-59
2021/07/05 08:08:55;;;;;;;;;;;;;;;25.45;61.77;99917.41;1822929;78;20259;-59
2021/07/05 08:11:21;;;;;;;;;;;;;;;25.43;61.73;99916.15;1827701;77;20221;-59
2021/07/05 08:13:48;;;;;;;;;;;;;;;25.42;61.68;99925.67;1828990;77;20409;-60
2021/07/05 08:16:14;;;;;;;;;;;;;;;25.41;61.63;99922.69;1826221;78;21898;-60
2021/07/05 08:18:40;;;;;;;;;;;;;;;25.38;61.56;99921.44;1819908;77;20177;-60
2021/07/05 08:21:06;;;;;;;;;;;;;;;25.37;61.54;99922.63;1822422;78;20148;-60
2021/07/05 08:23:32;;;;;;;;;;;;;;;25.35;61.51;99929.15;1819975;78;20190;-60
2021/07/05 08:25:58;;;;;;;;;;;;;;;25.35;61.49;99921.38;1825565;77;20734;-60
2021/07/05 08:28:25;;;;;;;;;;;;;;;25.33;61.45;99931.48;1818668;77;21906;-59
2021/07/05 08:30:56;;;;;;;;;;;;;;;25.31;61.42;99929.67;1826406;77;20156;-59
2021/07/05 08:33:22;;;;;;;;;;;;;;;25.30;61.39;99923.08;1818117;77;20193;-59
2021/07/05 08:35:48;;;;;;;;;;;;;;;25.29;61.36;99919.48;1827938;78;20165;-60
2021/07/05 08:38:14;;;;;;;;;;;;;;;25.27;61.32;99917.67;1815689;78;20209;-59
2021/07/05 08:40:41;;;;;;;;;;;;;;;25.27;61.30;99921.03;1787895;78;21091;-59
2021/07/05 08:43:07;;;;;;;;;;;;;;;25.26;61.26;99910.48;1823140;77;20194;-59
2021/07/05 08:45:32;;;;;;;;;;;;;;;25.26;61.22;99914.66;1772269;77;20254;-59
2021/07/05 08:47:58;;;;;;;;;;;;;;;25.27;61.18;99912.69;1819265;77;20225;-59
2021/07/05 08:50:26;;;;;;;;;;;;;;;25.27;61.16;99914.08;1827485;77;20215;-59
2021/07/05 08:52:52;;;;;;;;;;;;;;;25.27;61.10;99912.69;1820973;77;21783;-59
2021/07/05 08:55:20;;;;;;;;;;;;;;;25.27;61.07;99909.91;1821272;77;20150;-58
2021/07/05 08:57:46;;;;;;;;;;;;;;;25.27;61.03;99906.53;1820647;77;20205;-59
2021/07/05 09:00:15;;;;;;;;;;;;;;;25.29;61.02;99910.34;1826420;77;20151;-60
2021/07/05 09:02:41;;;;;;;;;;;;;;;25.29;60.96;99910.34;1820702;77;20497;-59
2021/07/05 09:05:08;;;;;;;;;;;;;;;25.31;60.93;99907.98;1819202;77;22015;-59
2021/07/05 09:07:36;;;;;;;;;;;;;;;25.29;60.89;99901.38;1821597;77;20200;-59
2021/07/05 09:10:07;;;;;;;;;;;;;;;25.29;60.87;99908.95;1793962;77;20197;-59
2021/07/05 09:12:33;;;;;;;;;;;;;;;25.31;60.82;99901.83;1819682;77;20423;-59
2021/07/05 09:15:10;;;;;;;;;;;;;;;25.30;60.79;99904.39;1824003;77;20220;-60
2021/07/05 09:17:37;;;;;;;;;;;;;;;25.30;60.75;99893.84;1822336;77;21048;-58
2021/07/05 09:20:16;;;;;;;;;;;;;;;25.29;60.70;99894.42;1825843;77;20372;-60
2021/07/05 09:23:11;;;;;;;;;;;;;;;25.31;60.67;99887.10;1822746;77;20157;-59
2021/07/05 09:25:44;;;;;;;;;;;;;;;25.31;60.62;99887.10;1832076;77;20609;-59
2021/07/05 09:28:10;;;;;;;;;;;;;;;25.32;60.57;99885.94;1826447;77;20195;-60
2021/07/05 09:30:41;;;;;;;;;;;;;;;25.32;60.53;99885.94;1836041;77;20910;-59
2021/07/05 09:33:22;;;;;;;;;;;;;;;25.32;60.51;99886.74;1828913;77;20111;-59
2021/07/05 09:35:50;;;;;;;;;;;;;;;25.33;60.49;99884.77;1807572;77;20183;-60
2021/07/05 09:38:41;;;;;;;;;;;;;;;25.34;60.46;99887.16;1814970;77;20410;-60
2021/07/05 09:41:30;;;;;;;;;;;;;;;25.35;60.43;99884.59;1834883;77;20189;-59
2021/07/05 09:43:58;;;;;;;;;;;;;;;25.37;60.41;99885.05;1815948;77;21179;-61
2021/07/05 09:46:42;;;;;;;;;;;;;;;25.38;60.36;99893.59;1820337;77;20188;-59
2021/07/05 09:49:20;;;;;;;;;;;;;;;25.39;60.34;99888.25;1813041;77;20178;-59
2021/07/05 09:52:07;;;;;;;;;;;;;;;25.39;60.31;99885.45;1824969;77;20135;-59
2021/07/05 09:54:36;;;;;;;;;;;;;;;25.40;60.28;99875.12;1817025;77;20130;-59
2021/07/05 09:57:04;;;;;;;;;;;;;;;25.40;60.27;99871.76;1829243;77;21115;-60
2021/07/05 09:59:31;;;;;;;;;;;;;;;25.42;60.25;99880.53;1828735;77;20191;-60
2021/07/05 10:01:58;;;;;;;;;;;;;;;25.42;60.23;99877.75;1824288;77;20135;-59
2021/07/05 10:04:27;;;;;;;;;;;;;;;25.42;60.20;99874.96;1823451;77;20466;-59
2021/07/05 10:06:58;;;;;;;;;;;;;;;25.43;60.17;99875.77;1829722;77;20406;-58
2021/07/05 10:09:40;;;;;;;;;;;;;;;25.43;60.17;99866.02;1820455;77;21067;-59
2021/07/05 10:12:26;;;;;;;;;;;;;;;25.43;60.15;99861.26;1833327;77;20407;-60
2021/07/05 10:14:55;;;;;;;;;;;;;;;25.44;60.12;99867.05;1828109;77;20161;-60
2021/07/05 10:17:22;;;;;;;;;;;;;;;25.45;60.11;99866.47;1824227;77;20822;-60
2021/07/05 10:19:47;;;;;;;;;;;;;;;25.46;60.08;99860.50;1828239;77;20146;-60
2021/07/05 10:22:14;;;;;;;;;;;;;;;25.50;60.06;99857.00;1828133;77;21164;-60
2021/07/05 10:24:41;;;;;;;;;;;;;;;25.51;60.04;99855.21;1835902;77;20086;-60
2021/07/05 10:27:08;;;;;;;;;;;;;;;25.54;60.00;99862.06;1824283;77;20137;-59
2021/07/05 10:29:38;;;;;;;;;;;;;;;25.56;59.96;99860.50;1827958;77;20136;-60
2021/07/05 10:32:05;;;;;;;;;;;;;;;25.57;59.94;99857.13;1830159;77;20695;-60
2021/07/05 10:34:31;;;;;;;;;;;;;;;25.60;59.90;99861.94;1814726;77;21087;-60
2021/07/05 10:36:57;;;;;;;;;;;;;;;25.61;59.86;99860.77;1824073;77;20772;-59
2021/07/05 10:39:23;;;;;;;;;;;;;;;25.63;59.82;99861.22;1800330;77;20206;-60
2021/07/05 10:41:48;;;;;;;;;;;;;;;25.64;59.77;99850.27;1819156;77;20796;-60
2021/07/05 10:44:20;;;;;;;;;;;;;;;25.65;59.75;99851.88;1805866;77;20213;-59
2021/07/05 10:46:44;;;;;;;;;;;;;;;25.67;59.71;99848.95;1802920;77;21196;-60
2021/07/05 10:49:33;;;;;;;;;;;;;;;25.68;59.66;99842.77;1834154;77;20167;-60
2021/07/05 10:52:01;;;;;;;;;;;;;;;25.71;59.61;99851.20;1835568;77;20498;-59
2021/07/05 10:54:51;;;;;;;;;;;;;;;25.73;59.58;99841.86;1828883;77;20213;-59
2021/07/05 10:57:20;;;;;;;;;;;;;;;25.76;59.51;99841.69;1826179;77;20181;-59
2021/07/05 10:59:48;;;;;;;;;;;;;;;25.78;59.46;99847.12;1808110;77;21984;-58
2021/07/05 11:02:32;;;;;;;;;;;;;;;25.78;59.43;99831.80;1832795;77;20163;-58
2021/07/05 11:04:58;;;;;;;;;;;;;;;25.80;59.37;99841.18;1778516;77;20135;-59
2021/07/05 11:07:43;;;;;;;;;;;;;;;25.82;59.35;99847.97;1817942;77;20153;-59
2021/07/05 11:10:15;;;;;;;;;;;;;;;25.83;59.29;99844.02;1795077;77;20152;-60
2021/07/05 11:12:41;;;;;;;;;;;;;;;25.86;59.27;99836.88;1835240;77;21880;-60
2021/07/05 11:15:07;;;;;;;;;;;;;;;25.87;59.23;99841.27;1824518;77;20259;-59
2021/07/05 11:17:37;;;;;;;;;;;;;;;25.87;59.19;99839.88;1818607;77;20158;-60
2021/07/05 11:20:14;;;;;;;;;;;;;;;25.88;59.17;99840.09;1823794;77;20734;-60
2021/07/05 11:22:56;;;;;;;;;;;;;;;25.88;59.12;99833.94;1825511;77;20420;-60
2021/07/05 11:25:23;;;;;;;;;;;;;;;25.91;59.09;99830.98;1828114;77;21926;-61
2021/07/05 11:27:54;;;;;;;;;;;;;;;25.93;59.06;99828.60;1828795;77;20181;-60
2021/07/05 11:30:24;;;;;;;;;;;;;;;25.95;59.00;99827.65;1828301;77;20089;-58
2021/07/05 11:32:53;;;;;;;;;;;;;;;25.98;58.96;99827.47;1820769;77;20225;-60
2021/07/05 11:35:34;;;;;;;;;;;;;;;26.00;58.94;99821.75;1828389;77;20195;-59
2021/07/05 11:38:06;;;;;;;;;;;;;;;26.02;58.88;99825.53;1833575;77;21135;-60
2021/07/05 11:40:50;;;;;;;;;;;;;;;26.04;58.83;99815.63;1826674;77;20166;-60
2021/07/05 11:43:19;;;;;;;;;;;;;;;26.05;58.78;99818.64;1834167;77;20134;-60
2021/07/05 11:45:49;;;;;;;;;;;;;;;26.05;58.75;99821.42;1825982;77;20176;-60
2021/07/05 11:48:42;;;;;;;;;;;;;;;26.05;58.71;99827.00;1834391;77;20132;-59
2021/07/05 11:51:18;;;;;;;;;;;;;;;26.06;58.66;99824.41;1821481;77;21107;-60
2021/07/05 11:53:56;;;;;;;;;;;;;;;26.06;58.64;99827.19;1816088;77;20236;-60
2021/07/05 11:56:26;;;;;;;;;;;;;;;26.06;58.59;99817.44;1821401;77;20137;-61
2021/07/05 11:58:52;;;;;;;;;;;;;;;26.05;58.57;99817.25;1829964;77;20191;-60
2021/07/05 12:01:18;;;;;;;;;;;;;;;26.07;58.52;99813.47;1836920;76;20164;-60
2021/07/05 12:03:52;;;;;;;;;;;;;;;26.07;58.52;99813.47;1841993;76;21296;-59
2021/07/05 12:06:18;;;;;;;;;;;;;;;26.09;58.48;99809.73;1833609;77;20140;-59
2021/07/05 12:08:54;;;;;;;;;;;;;;;26.10;58.47;99805.73;1825179;77;20179;-60
2021/07/05 12:11:37;;;;;;;;;;;;;;;26.13;58.44;99813.95;1823306;78;20198;-60
2021/07/05 12:14:06;;;;;;;;;;;;;;;26.14;58.40;99807.20;1815917;78;20116;-61
2021/07/05 12:16:33;;;;;;;;;;;;;;;26.15;58.32;99809.59;1822626;78;21157;-60
2021/07/05 12:18:59;;;;;;;;;;;;;;;26.15;58.10;99812.38;1818834;78;20467;-61
2021/07/05 12:21:33;;;;;;;;;;;;;;;26.12;57.92;99806.17;1821653;78;20211;-60
2021/07/05 12:24:11;;;;;;;;;;;;;;;26.09;57.75;99812.52;1811251;78;20971;-60
2021/07/05 12:26:57;;;;;;;;;;;;;;;26.06;57.59;99802.10;1814167;77;20158;-60
2021/07/05 12:29:28;;;;;;;;;;;;;;;26.03;57.43;99802.87;1798177;78;21100;-60
2021/07/05 12:32:18;;;;;;;;;;;;;;;25.99;57.25;99797.84;1821350;78;20141;-61
2021/07/05 12:35:00;;;;;;;;;;;;;;;25.97;57.09;99794.61;1814928;78;20172;-60
2021/07/05 12:37:54;;;;;;;;;;;;;;;25.95;56.92;99796.19;1817759;77;20431;-61
2021/07/05 12:40:24;;;;;;;;;;;;;;;25.91;56.75;99789.17;1816082;78;20207;-60
2021/07/05 12:42:58;;;;;;;;;;;;;;;25.89;56.59;99795.70;1819569;78;21059;-59
2021/07/05 12:45:37;;;;;;;;;;;;;;;25.87;56.45;99796.09;1812994;78;20559;-60
2021/07/05 12:48:14;;;;;;;;;;;;;;;25.86;56.28;99796.47;1815150;78;20156;-60
2021/07/05 12:50:48;;;;;;;;;;;;;;;25.86;56.14;99793.68;1818806;78;20130;-61
2021/07/05 12:53:25;;;;;;;;;;;;;;;25.85;55.95;99794.85;1815578;78;20161;-60
2021/07/05 12:56:02;;;;;;;;;;;;;;;25.83;55.81;99795.84;1820895;78;21063;-60